createdAt,value
2018-07-31T00:01:56.317Z,6.65
2018-07-31T00:04:24.521Z,5.90
2018-07-31T00:06:53.111Z,7.03
2018-07-31T00:09:21.304Z,6.45
2018-07-31T00:11:49.482Z,6.87
2018-07-31T00:14:17.668Z,5.28
2018-07-31T00:16:45.853Z,5.62
2018-07-31T00:19:14.053Z,7.87
2018-07-31T00:21:42.267Z,5.67
2018-07-31T00:24:10.705Z,5.67
2018-07-31T00:26:39.605Z,5.62
2018-07-31T00:29:07.775Z,5.97
2018-07-31T00:31:36.007Z,6.72
2018-07-31T00:34:04.191Z,6.40
2018-07-31T00:36:32.396Z,6.42
2018-07-31T00:39:00.629Z,6.87
2018-07-31T00:41:28.786Z,7.80
2018-07-31T00:43:56.972Z,5.12
2018-07-31T00:46:25.152Z,8.05
2018-07-31T00:48:54.165Z,5.70
2018-07-31T00:51:22.346Z,5.35
2018-07-31T00:53:51.249Z,5.05
2018-07-31T00:56:19.470Z,9.23
2018-07-31T00:58:48.040Z,6.35
2018-07-31T01:01:16.190Z,6.08
2018-07-31T01:03:44.382Z,6.25
2018-07-31T01:06:12.598Z,6.83
2018-07-31T01:08:41.052Z,6.53
2018-07-31T01:11:09.277Z,5.33
2018-07-31T01:13:37.506Z,5.58
2018-07-31T01:16:06.028Z,6.72
2018-07-31T01:18:34.249Z,6.05
2018-07-31T01:21:03.186Z,7.87
2018-07-31T01:23:31.369Z,5.35
2018-07-31T01:25:59.549Z,5.97
2018-07-31T01:28:27.733Z,5.58
2018-07-31T01:30:56.657Z,7.53
2018-07-31T01:33:24.928Z,5.92
2018-07-31T01:35:53.453Z,6.87
2018-07-31T01:38:21.626Z,6.47
2018-07-31T01:40:49.842Z,6.37
2018-07-31T01:43:18.047Z,6.95
2018-07-31T01:45:46.605Z,5.70
2018-07-31T01:48:15.542Z,6.10
2018-07-31T01:50:43.743Z,6.53
2018-07-31T01:53:11.950Z,5.95
2018-07-31T01:55:40.134Z,5.90
2018-07-31T01:58:08.362Z,6.72
2018-07-31T02:00:37.003Z,6.85
2018-07-31T02:03:05.178Z,8.38
2018-07-31T02:05:33.778Z,8.20
2018-07-31T02:08:01.948Z,6.47
2018-07-31T02:10:30.158Z,6.78
2018-07-31T02:12:58.350Z,5.58
2018-07-31T02:15:27.195Z,6.27
2018-07-31T02:17:55.356Z,6.53
2018-07-31T02:20:23.576Z,6.50
2018-07-31T02:22:51.991Z,7.00
2018-07-31T02:25:20.189Z,8.20
2018-07-31T02:27:48.389Z,8.75
2018-07-31T02:30:20.589Z,6.40
2018-07-31T02:32:50.821Z,7.55
2018-07-31T02:35:19.001Z,5.78
2018-07-31T02:37:47.150Z,5.87
2018-07-31T02:40:16.132Z,7.97
2018-07-31T02:42:44.296Z,10.78
2018-07-31T02:45:13.920Z,10.27
2018-07-31T02:47:43.225Z,9.83
2018-07-31T02:50:11.422Z,7.70
2018-07-31T02:52:40.074Z,7.63
2018-07-31T02:55:09.397Z,6.72
2018-07-31T02:57:38.083Z,9.73
2018-07-31T03:00:07.667Z,9.55
2018-07-31T03:02:35.833Z,6.20
2018-07-31T03:05:04.457Z,6.25
2018-07-31T03:07:32.414Z,8.08
2018-07-31T03:10:00.971Z,8.60
2018-07-31T03:12:29.192Z,6.93
2018-07-31T03:14:57.418Z,7.07
2018-07-31T03:17:25.615Z,8.20
2018-07-31T03:19:55.730Z,7.17
2018-07-31T03:22:23.970Z,12.40
2018-07-31T03:24:52.190Z,7.50
2018-07-31T03:27:20.433Z,7.73
2018-07-31T03:29:48.706Z,9.70
2018-07-31T03:32:16.897Z,8.50
2018-07-31T03:34:45.075Z,8.70
2018-07-31T03:37:13.309Z,7.53
2018-07-31T03:39:42.383Z,7.47
2018-07-31T03:42:10.543Z,8.87
2018-07-31T03:44:39.562Z,8.07
2018-07-31T03:47:07.492Z,8.00
2018-07-31T03:49:35.694Z,11.35
2018-07-31T03:52:03.908Z,7.43
2018-07-31T03:54:32.502Z,8.13
2018-07-31T03:57:01.009Z,9.23
2018-07-31T03:59:29.409Z,10.20
2018-07-31T04:01:57.647Z,7.20
2018-07-31T04:04:25.857Z,7.93
2018-07-31T04:06:54.074Z,9.63
2018-07-31T04:09:22.238Z,9.95
2018-07-31T04:11:50.411Z,7.17
2018-07-31T04:14:18.657Z,6.55
2018-07-31T04:16:46.884Z,7.70
2018-07-31T04:19:15.026Z,7.62
2018-07-31T04:21:43.230Z,9.63
2018-07-31T04:24:11.484Z,13.03
2018-07-31T04:26:40.397Z,9.75
2018-07-31T04:29:10.043Z,9.20
2018-07-31T04:31:38.258Z,9.47
2018-07-31T04:34:06.501Z,8.03
2018-07-31T04:36:34.712Z,7.70
2018-07-31T04:39:03.171Z,9.83
2018-07-31T04:41:31.370Z,14.03
2018-07-31T04:43:59.565Z,12.43
2018-07-31T04:46:27.826Z,19.77
2018-07-31T04:48:56.001Z,12.33
2018-07-31T04:51:24.285Z,8.65
2018-07-31T04:53:52.490Z,9.18
2018-07-31T04:56:20.709Z,7.35
2018-07-31T04:58:48.963Z,9.75
2018-07-31T05:01:17.153Z,6.17
2018-07-31T05:03:45.344Z,5.80
2018-07-31T05:06:13.541Z,5.50
2018-07-31T05:08:41.774Z,11.35
2018-07-31T05:11:10.038Z,8.03
2018-07-31T05:13:38.291Z,10.05
2018-07-31T05:16:06.518Z,6.30
2018-07-31T05:18:34.718Z,5.67
2018-07-31T05:21:02.929Z,4.70
2018-07-31T05:23:31.146Z,9.20
2018-07-31T05:25:59.322Z,4.75
2018-07-31T05:28:27.505Z,4.70
2018-07-31T05:30:55.732Z,5.35
2018-07-31T05:33:23.940Z,5.47
2018-07-31T05:35:52.474Z,5.20
2018-07-31T05:38:20.675Z,8.48
2018-07-31T05:40:48.851Z,7.60
2018-07-31T05:43:17.406Z,5.75
2018-07-31T05:45:45.626Z,4.62
2018-07-31T05:48:13.799Z,5.20
2018-07-31T05:50:41.977Z,5.20
2018-07-31T05:53:10.171Z,5.70
2018-07-31T05:55:38.335Z,5.40
2018-07-31T05:58:06.899Z,6.10
2018-07-31T06:00:35.131Z,7.05
2018-07-31T06:03:03.394Z,5.78
2018-07-31T06:05:32.178Z,8.88
2018-07-31T06:08:00.325Z,6.00
2018-07-31T06:10:28.535Z,6.85
2018-07-31T06:12:56.762Z,5.67
2018-07-31T06:15:24.984Z,5.20
2018-07-31T06:17:53.182Z,5.95
2018-07-31T06:20:21.664Z,6.67
2018-07-31T06:22:49.805Z,5.33
2018-07-31T06:25:17.977Z,5.37
2018-07-31T06:27:46.186Z,7.40
2018-07-31T06:30:15.280Z,5.40
2018-07-31T06:32:43.896Z,6.00
2018-07-31T06:35:12.075Z,5.20
2018-07-31T06:37:40.709Z,4.50
2018-07-31T06:40:09.563Z,8.38
2018-07-31T06:42:37.741Z,5.72
2018-07-31T06:45:06.116Z,6.60
2018-07-31T06:47:34.602Z,6.55
2018-07-31T06:50:02.844Z,4.80
2018-07-31T06:52:31.022Z,5.00
2018-07-31T06:54:59.215Z,6.15
2018-07-31T06:57:27.393Z,5.78
2018-07-31T06:59:55.590Z,5.95
2018-07-31T07:02:23.763Z,6.20
2018-07-31T07:04:52.047Z,4.97
2018-07-31T07:07:20.302Z,4.90
2018-07-31T07:09:48.670Z,5.87
2018-07-31T07:12:16.913Z,6.97
2018-07-31T07:14:45.106Z,5.20
2018-07-31T07:17:13.288Z,4.60
2018-07-31T07:19:41.476Z,4.75
2018-07-31T07:22:09.654Z,5.97
2018-07-31T07:24:37.821Z,6.72
2018-07-31T07:27:06.746Z,4.80
2018-07-31T07:29:34.886Z,5.90
2018-07-31T07:32:03.899Z,4.47
2018-07-31T07:34:32.114Z,5.15
2018-07-31T07:37:00.289Z,5.62
2018-07-31T07:39:28.466Z,6.08
2018-07-31T07:41:56.694Z,5.78
2018-07-31T07:44:24.930Z,4.67
2018-07-31T07:46:53.068Z,4.62
2018-07-31T07:49:21.276Z,4.60
2018-07-31T07:51:49.469Z,4.87
2018-07-31T07:54:18.512Z,6.30
2018-07-31T07:56:46.646Z,4.70
2018-07-31T07:59:14.834Z,5.95
2018-07-31T08:01:43.095Z,10.40
2018-07-31T08:04:11.477Z,7.33
2018-07-31T08:06:39.570Z,4.75
2018-07-31T08:09:08.689Z,4.62
2018-07-31T08:11:36.866Z,10.65
2018-07-31T08:14:05.372Z,5.15
2018-07-31T08:16:33.594Z,5.25
2018-07-31T08:19:02.089Z,7.40
2018-07-31T08:21:31.401Z,6.87
2018-07-31T08:23:59.624Z,8.08
2018-07-31T08:26:27.810Z,6.72
2018-07-31T08:28:57.619Z,6.97
2018-07-31T08:31:25.809Z,7.53
2018-07-31T08:33:54.420Z,5.10
2018-07-31T08:36:22.570Z,11.05
2018-07-31T08:38:50.837Z,5.35
2018-07-31T08:41:19.068Z,5.40
2018-07-31T08:43:47.769Z,5.47
2018-07-31T08:46:16.790Z,5.40
2018-07-31T08:48:45.009Z,5.50
2018-07-31T08:51:13.256Z,5.60
2018-07-31T08:53:41.442Z,5.58
2018-07-31T08:56:09.638Z,6.40
2018-07-31T08:58:37.597Z,6.08
2018-07-31T09:01:05.766Z,6.53
2018-07-31T09:03:34.257Z,6.15
2018-07-31T09:06:02.431Z,8.80
2018-07-31T09:08:30.761Z,6.60
2018-07-31T09:10:58.870Z,9.78
2018-07-31T09:13:27.061Z,5.87
2018-07-31T09:15:55.253Z,4.90
2018-07-31T09:18:23.566Z,9.75
2018-07-31T09:20:51.800Z,10.55
2018-07-31T09:23:20.472Z,7.10
2018-07-31T09:25:48.685Z,10.60
2018-07-31T09:28:17.994Z,6.10
2018-07-31T09:30:51.567Z,7.28
2018-07-31T09:33:19.673Z,4.70
2018-07-31T09:35:47.917Z,6.42
2018-07-31T09:38:16.409Z,4.87
2018-07-31T09:40:45.092Z,6.58
2018-07-31T09:43:13.313Z,6.65
2018-07-31T09:45:41.538Z,5.87
2018-07-31T09:48:09.745Z,4.83
2018-07-31T09:50:37.959Z,7.67
2018-07-31T09:53:06.522Z,8.55
2018-07-31T09:55:35.094Z,4.75
2018-07-31T09:58:04.144Z,5.28
2018-07-31T10:00:37.829Z,4.28
2018-07-31T10:03:06.542Z,10.53
2018-07-31T10:05:34.798Z,7.90
2018-07-31T10:08:03.062Z,10.88
2018-07-31T10:10:30.993Z,4.95
2018-07-31T10:12:59.646Z,7.67
2018-07-31T10:15:27.998Z,4.17
2018-07-31T10:17:56.280Z,4.58
2018-07-31T10:20:24.370Z,6.40
2018-07-31T10:22:52.983Z,4.12
2018-07-31T10:25:21.338Z,4.08
2018-07-31T10:27:49.592Z,4.08
2018-07-31T10:30:17.832Z,4.92
2018-07-31T10:32:46.078Z,5.17
2018-07-31T10:35:14.277Z,3.75
2018-07-31T10:37:42.869Z,3.25
2018-07-31T10:40:10.950Z,5.95
2018-07-31T10:42:39.282Z,4.67
2018-07-31T10:45:07.493Z,4.25
2018-07-31T10:47:35.681Z,4.10
2018-07-31T10:50:03.871Z,5.05
2018-07-31T10:52:32.094Z,4.62
2018-07-31T10:55:00.293Z,3.58
2018-07-31T10:57:29.188Z,5.08
2018-07-31T10:59:57.484Z,3.25
2018-07-31T11:02:25.673Z,3.40
2018-07-31T11:04:53.837Z,4.05
2018-07-31T11:07:22.078Z,3.40
2018-07-31T11:09:50.818Z,2.98
2018-07-31T11:12:19.048Z,5.15
2018-07-31T11:14:47.257Z,3.22
2018-07-31T11:17:15.474Z,3.90
2018-07-31T12:59:52.794Z,3.30
2018-07-31T13:02:20.734Z,3.52
2018-07-31T13:04:50.434Z,3.62
2018-07-31T13:07:18.606Z,4.17
2018-07-31T13:09:46.826Z,3.98
2018-07-31T13:12:15.465Z,4.05
2018-07-31T13:14:43.909Z,7.25
2018-07-31T13:17:12.186Z,4.00
2018-07-31T13:19:40.835Z,5.20
2018-07-31T13:22:09.029Z,4.15
2018-07-31T13:24:37.201Z,3.08
2018-07-31T13:27:05.409Z,3.95
2018-07-31T13:29:33.618Z,3.40
2018-07-31T13:32:02.091Z,3.65
2018-07-31T13:34:30.241Z,4.00
2018-07-31T13:36:58.561Z,4.35
2018-07-31T13:39:27.186Z,3.50
2018-07-31T13:41:55.384Z,3.72
2018-07-31T13:44:30.237Z,4.92
2018-07-31T13:46:58.418Z,5.10
2018-07-31T13:49:26.617Z,3.35
2018-07-31T13:51:54.810Z,4.67
2018-07-31T13:54:23.022Z,3.70
2018-07-31T13:56:51.570Z,3.85
2018-07-31T13:59:19.720Z,3.45
2018-07-31T14:01:48.847Z,4.80
2018-07-31T14:04:17.192Z,3.72
2018-07-31T14:06:45.366Z,14.18
2018-07-31T14:09:13.608Z,6.15
2018-07-31T14:11:41.806Z,6.55
2018-07-31T14:14:09.982Z,6.42
2018-07-31T14:16:38.198Z,3.58
2018-07-31T14:19:06.953Z,3.65
2018-07-31T14:21:35.402Z,3.95
2018-07-31T14:24:03.645Z,8.58
2018-07-31T14:26:31.961Z,4.00
2018-07-31T14:29:01.165Z,3.62
2018-07-31T14:31:30.023Z,4.08
2018-07-31T14:33:58.270Z,5.50
2018-07-31T14:36:26.716Z,3.25
2018-07-31T14:38:54.993Z,6.65
2018-07-31T14:41:23.159Z,3.08
2018-07-31T14:43:51.392Z,4.25
2018-07-31T14:46:19.693Z,3.10
2018-07-31T14:48:48.708Z,4.17
2018-07-31T14:51:16.890Z,4.40
2018-07-31T14:53:45.085Z,4.87
2018-07-31T14:56:13.298Z,3.83
2018-07-31T14:58:41.558Z,3.02
2018-07-31T15:01:09.715Z,4.20
2018-07-31T15:03:37.920Z,6.28
2018-07-31T15:06:08.230Z,3.62
2018-07-31T15:08:38.401Z,8.75
2018-07-31T15:11:09.015Z,3.85
2018-07-31T15:13:37.263Z,4.30
2018-07-31T15:16:05.446Z,3.95
2018-07-31T15:18:33.618Z,5.03
2018-07-31T15:21:01.842Z,11.08
2018-07-31T15:23:30.131Z,6.22
2018-07-31T15:25:58.338Z,3.83
2018-07-31T15:28:26.594Z,3.25
2018-07-31T15:30:54.997Z,4.67
2018-07-31T15:33:23.629Z,3.62
2018-07-31T15:35:51.834Z,2.75
2018-07-31T15:38:20.075Z,2.40
2018-07-31T15:40:48.338Z,2.55
2018-07-31T15:43:16.497Z,2.35
2018-07-31T15:45:44.708Z,5.70
2018-07-31T15:48:12.922Z,2.17
2018-07-31T15:50:41.149Z,3.90
2018-07-31T15:53:09.341Z,2.95
2018-07-31T15:55:37.538Z,7.33
2018-07-31T15:58:05.787Z,6.40
2018-07-31T16:00:34.106Z,3.17
2018-07-31T16:03:02.262Z,9.28
2018-07-31T16:05:30.468Z,4.80
2018-07-31T16:07:58.692Z,4.42
2018-07-31T16:10:26.938Z,6.83
2018-07-31T16:12:55.172Z,4.00
2018-07-31T16:15:23.338Z,6.53
2018-07-31T16:17:51.537Z,3.67
2018-07-31T16:20:21.284Z,3.17
2018-07-31T16:22:49.627Z,3.02
2018-07-31T16:25:17.795Z,2.62
2018-07-31T16:27:45.962Z,2.92
2018-07-31T16:30:14.144Z,4.08
2018-07-31T16:32:42.378Z,2.60
2018-07-31T16:35:10.574Z,3.15
2018-07-31T16:37:39.174Z,2.85
2018-07-31T16:40:07.726Z,3.52
2018-07-31T16:42:36.261Z,5.67
2018-07-31T16:45:04.479Z,3.00
2018-07-31T16:47:32.689Z,3.50
2018-07-31T16:50:00.880Z,3.25
2018-07-31T16:52:29.093Z,3.35
2018-07-31T16:54:57.411Z,3.37
2018-07-31T16:57:25.577Z,2.92
2018-07-31T16:59:53.746Z,3.12
2018-07-31T17:02:21.969Z,4.47
2018-07-31T17:04:50.171Z,3.10
2018-07-31T17:07:20.115Z,3.20
2018-07-31T17:09:48.282Z,2.92
2018-07-31T17:12:16.714Z,5.45
2018-07-31T17:14:45.277Z,2.50
2018-07-31T17:17:13.471Z,3.15
2018-07-31T17:19:41.717Z,4.37
2018-07-31T17:22:10.329Z,5.90
2018-07-31T17:24:38.525Z,3.27
2018-07-31T17:27:06.754Z,3.22
2018-07-31T17:29:35.387Z,3.12
2018-07-31T17:32:03.611Z,2.95
2018-07-31T17:34:31.786Z,4.15
2018-07-31T17:36:59.959Z,2.65
2018-07-31T17:39:28.630Z,2.95
2018-07-31T17:41:56.834Z,3.35
2018-07-31T17:44:25.223Z,2.70
2018-07-31T17:46:53.342Z,3.05
2018-07-31T17:49:23.647Z,2.98
2018-07-31T17:51:51.837Z,3.33
2018-07-31T17:54:20.014Z,3.67
2018-07-31T17:56:48.551Z,2.65
2018-07-31T17:59:16.721Z,2.20
2018-07-31T18:01:44.898Z,4.65
2018-07-31T18:04:13.089Z,2.55
2018-07-31T18:06:41.279Z,6.95
2018-07-31T18:09:10.271Z,4.42
2018-07-31T18:11:39.597Z,2.52
2018-07-31T18:14:08.090Z,1.67
2018-07-31T18:16:36.726Z,3.65
2018-07-31T18:19:04.978Z,1.60
2018-07-31T18:21:33.401Z,2.85
2018-07-31T18:24:01.633Z,4.42
2018-07-31T18:26:30.272Z,1.62
2018-07-31T18:28:58.461Z,1.60
2018-07-31T18:31:26.682Z,3.85
2018-07-31T18:33:55.318Z,3.60
2018-07-31T18:36:23.827Z,2.15
2018-07-31T18:38:52.289Z,1.77
2018-07-31T18:41:20.521Z,4.90
2018-07-31T18:43:48.705Z,1.62
2018-07-31T18:46:17.498Z,4.22
2018-07-31T18:48:45.695Z,4.60
2018-07-31T18:51:13.893Z,1.87
2018-07-31T18:53:42.104Z,5.92
2018-07-31T18:56:10.328Z,2.90
2018-07-31T18:58:38.514Z,3.15
2018-07-31T19:01:06.833Z,3.92
2018-07-31T19:03:35.553Z,3.27
2018-07-31T19:06:04.220Z,3.65
2018-07-31T19:08:32.490Z,3.58
2018-07-31T19:11:00.673Z,4.85
2018-07-31T19:13:28.850Z,6.50
2018-07-31T19:15:57.102Z,4.58
2018-07-31T19:18:25.260Z,2.92
2018-07-31T19:20:53.473Z,3.02
2018-07-31T19:23:22.398Z,9.90
2018-07-31T19:25:50.626Z,1.70
2018-07-31T19:28:18.965Z,5.65
2018-07-31T19:30:48.791Z,5.50
2018-07-31T19:33:17.096Z,7.85
2018-07-31T19:35:45.234Z,6.62
2018-07-31T19:38:13.434Z,5.03
2018-07-31T19:40:42.555Z,6.25
2018-07-31T19:43:10.778Z,3.90
2018-07-31T19:45:38.972Z,2.90
2018-07-31T19:48:07.155Z,2.27
2018-07-31T19:50:35.369Z,3.95
2018-07-31T19:53:03.624Z,3.90
2018-07-31T19:55:31.788Z,2.65
2018-07-31T19:58:00.087Z,4.22
2018-07-31T20:00:28.252Z,1.90
2018-07-31T20:02:56.479Z,1.95
2018-07-31T20:05:24.738Z,4.00
2018-07-31T20:07:52.962Z,2.52
2018-07-31T20:10:21.141Z,1.70
2018-07-31T20:12:49.353Z,4.80
2018-07-31T20:15:17.538Z,2.25
2018-07-31T20:17:45.724Z,4.08
2018-07-31T20:20:13.875Z,6.80
2018-07-31T20:22:43.502Z,5.47
2018-07-31T20:25:11.775Z,1.95
2018-07-31T20:27:40.043Z,3.87
2018-07-31T20:30:08.326Z,4.87
2018-07-31T20:32:36.633Z,2.37
2018-07-31T20:35:04.944Z,9.93
2018-07-31T20:37:33.165Z,2.77
2018-07-31T20:40:01.471Z,3.27
2018-07-31T20:42:29.707Z,4.42
2018-07-31T20:44:57.933Z,1.55
2018-07-31T20:47:26.169Z,3.27
2018-07-31T20:49:54.449Z,2.10
2018-07-31T20:52:22.659Z,4.15
2018-07-31T20:54:50.903Z,5.67
2018-07-31T20:57:19.485Z,6.60
2018-07-31T20:59:47.721Z,3.15
2018-07-31T21:02:15.902Z,4.25
2018-07-31T21:04:44.094Z,3.70
2018-07-31T21:07:12.298Z,4.33
2018-07-31T21:09:40.505Z,2.85
2018-07-31T21:12:09.618Z,6.45
2018-07-31T21:14:38.125Z,3.90
2018-07-31T21:17:06.317Z,4.17
2018-07-31T21:19:34.565Z,7.03
2018-07-31T21:22:02.811Z,3.95
2018-07-31T21:24:31.002Z,4.78
2018-07-31T21:26:59.174Z,2.58
2018-07-31T21:29:27.405Z,4.33
2018-07-31T21:31:55.598Z,3.10
2018-07-31T21:34:23.830Z,4.22
2018-07-31T21:36:52.015Z,6.15
2018-07-31T21:39:20.294Z,4.78
2018-07-31T21:41:48.770Z,5.42
2018-07-31T21:44:16.921Z,3.83
2018-07-31T21:46:45.216Z,4.17
2018-07-31T21:49:13.376Z,4.28
2018-07-31T21:51:41.573Z,3.67
2018-07-31T21:54:09.788Z,2.98
2018-07-31T21:56:38.624Z,1.50
2018-07-31T21:59:07.061Z,3.02
2018-07-31T22:01:35.240Z,2.62
2018-07-31T22:04:03.448Z,4.72
2018-07-31T22:06:32.020Z,2.92
2018-07-31T22:09:00.190Z,2.37
2018-07-31T22:11:28.342Z,3.40
2018-07-31T22:13:56.868Z,6.78
2018-07-31T22:16:25.254Z,2.95
2018-07-31T22:18:54.082Z,4.72
2018-07-31T22:21:22.247Z,3.75
2018-07-31T22:23:50.443Z,1.40
2018-07-31T22:26:18.657Z,4.12
2018-07-31T22:28:46.873Z,3.55
2018-07-31T22:31:15.275Z,2.37
2018-07-31T22:33:43.480Z,3.33
2018-07-31T22:36:11.681Z,3.62
2018-07-31T22:38:39.874Z,2.33
2018-07-31T22:41:08.052Z,1.60
2018-07-31T22:43:36.245Z,2.27
2018-07-31T22:46:04.399Z,2.02
2018-07-31T22:48:32.586Z,1.42
2018-07-31T22:51:00.541Z,4.33
2018-07-31T22:53:28.742Z,2.58
2018-07-31T22:55:56.929Z,4.08
2018-07-31T22:58:25.161Z,1.52
2018-07-31T23:00:53.323Z,2.60
2018-07-31T23:03:21.529Z,1.40
2018-07-31T23:05:49.722Z,2.58
2018-07-31T23:08:17.887Z,1.62
2018-07-31T23:10:46.098Z,1.77
2018-07-31T23:13:14.279Z,1.00
2018-07-31T23:15:42.879Z,3.22
2018-07-31T23:18:11.053Z,2.47
2018-07-31T23:20:39.258Z,3.22
2018-07-31T23:23:08.540Z,4.17
2018-07-31T23:25:36.774Z,2.45
2018-07-31T23:28:05.898Z,1.60
2018-07-31T23:30:34.153Z,2.10
2018-07-31T23:33:02.340Z,3.40
2018-07-31T23:35:30.490Z,3.00
2018-07-31T23:37:58.693Z,1.20
2018-07-31T23:40:27.322Z,4.10
2018-07-31T23:42:55.454Z,1.98
2018-07-31T23:45:23.634Z,1.80
2018-07-31T23:47:52.296Z,2.12
2018-07-31T23:50:20.461Z,1.90
2018-07-31T23:52:48.661Z,3.02
2018-07-31T23:55:16.870Z,3.22
2018-07-31T23:57:45.066Z,2.58
